Terminal Aerodrome Forecast
Issued by NWS Quad Cities IA IL

Home | Current Version | Previous Version | Text Only | Print | Product List | Glossary On
Versions: 1 2 3 4 5 6 7 8 9 10 11 12 13 14 15
739
FTUS43 KDVN 141140
TAFDBQ
TAF
KDBQ 141140Z 1412/1512 14012KT P6SM FEW060 SCT070 OVC100
     FM141400 14015G22KT 1SM -SN BR OVC009
     FM141900 14013KT 2SM -SN BR OVC012
     FM142200 13011KT 5SM -SN BR OVC020
     FM150100 14008KT 6SM BR OVC015=

USA.gov is the U.S. government's official web portal to all federal, state and local government web resources and services.